Time;durP1;ratioP1;P1;durP2;ratioP2;P2;SDS_P1;SDS_P2;PMS_P1;PMS_P2;Temp;Humidity;BMP_temperature;BMP_pressure;BME280_temperature;BME280_humidity;BME280_pressure;Samples;Min_cycle;Max_cycle;Signal;HPM_P1;HPM_P2
2023/05/15 00:00:22;;;;;;;30.88;27.98;;;12.50;87.90;;;;;;5049767;28;20108;-47
2023/05/15 00:02:48;;;;;;;27.45;24.85;;;12.50;87.90;;;;;;5052373;28;20366;-47
2023/05/15 00:05:20;;;;;;;29.60;26.67;;;12.60;87.90;;;;;;5052073;28;20029;-46
2023/05/15 00:07:48;;;;;;;31.60;28.60;;;12.60;87.90;;;;;;5034154;28;20117;-47
2023/05/15 00:10:14;;;;;;;32.25;28.83;;;12.50;87.90;;;;;;5045193;28;20044;-46
2023/05/15 00:12:40;;;;;;;32.03;28.83;;;12.50;87.90;;;;;;5050825;28;20454;-49
2023/05/15 00:15:09;;;;;;;31.02;27.98;;;12.50;88.10;;;;;;5043699;28;20044;-46
2023/05/15 00:17:36;;;;;;;29.83;27.07;;;12.50;88.20;;;;;;5039801;28;20106;-46
2023/05/15 00:20:04;;;;;;;31.00;28.20;;;12.50;88.10;;;;;;5043288;28;20284;-48
2023/05/15 00:22:32;;;;;;;33.28;29.73;;;12.50;88.00;;;;;;5034114;28;20045;-46
2023/05/15 00:24:59;;;;;;;30.65;27.75;;;12.50;88.00;;;;;;5048405;28;20029;-48
2023/05/15 00:27:26;;;;;;;29.75;26.88;;;12.50;88.20;;;;;;5050562;28;20021;-46
2023/05/15 00:29:55;;;;;;;31.42;28.58;;;12.50;88.30;;;;;;5041041;28;20082;-46
2023/05/15 00:32:22;;;;;;;32.20;29.23;;;12.50;88.10;;;;;;5051850;28;20083;-46
2023/05/15 00:34:50;;;;;;;32.53;29.38;;;12.40;88.10;;;;;;5050830;28;20033;-46
2023/05/15 00:37:17;;;;;;;31.98;28.98;;;12.40;88.10;;;;;;5036766;28;20065;-46
2023/05/15 00:39:44;;;;;;;32.85;29.67;;;12.40;88.00;;;;;;5032447;28;20135;-47
2023/05/15 00:42:16;;;;;;;33.60;30.52;;;12.40;88.20;;;;;;5046401;28;20342;-46
2023/05/15 00:44:44;;;;;;;34.85;31.58;;;12.40;88.30;;;;;;5051338;28;20036;-46
2023/05/15 00:47:12;;;;;;;36.30;32.63;;;12.30;88.50;;;;;;5042783;28;20323;-46
2023/05/15 00:49:39;;;;;;;36.65;33.30;;;12.30;88.70;;;;;;5032026;28;20029;-48
2023/05/15 00:52:08;;;;;;;35.03;31.55;;;12.30;88.70;;;;;;5048100;28;20025;-46
2023/05/15 00:54:35;;;;;;;37.10;33.40;;;12.30;88.70;;;;;;5036560;28;20470;-46
2023/05/15 00:57:05;;;;;;;39.10;35.15;;;12.30;88.80;;;;;;5033637;28;20072;-46
2023/05/15 00:59:32;;;;;;;;;;;12.30;88.80;;;;;;5013788;28;20041;-46
2023/05/15 01:01:59;;;;;;;36.15;32.70;;;12.20;88.80;;;;;;5046603;28;20318;-47
2023/05/15 01:04:25;;;;;;;36.90;33.47;;;12.30;88.80;;;;;;5044797;28;20029;-47
2023/05/15 01:06:52;;;;;;;35.60;31.92;;;12.20;88.80;;;;;;5017131;28;20477;-46
2023/05/15 01:09:22;;;;;;;36.95;33.45;;;12.20;88.90;;;;;;5019633;28;20434;-45
2023/05/15 01:11:52;;;;;;;38.85;35.20;;;12.30;88.80;;;;;;5007070;28;20043;-47
2023/05/15 01:14:20;;;;;;;39.90;36.22;;;12.30;88.80;;;;;;5034456;28;20116;-47
2023/05/15 01:16:47;;;;;;;43.65;38.28;;;12.20;88.70;;;;;;5022030;28;20071;-46
2023/05/15 01:19:14;;;;;;;38.47;34.88;;;12.20;88.70;;;;;;5025513;28;20143;-46
2023/05/15 01:22:15;;;;;;;38.13;34.35;;;12.10;88.90;;;;;;5033637;28;20421;-45
2023/05/15 01:25:11;;;;;;;37.38;33.72;;;12.10;88.90;;;;;;5030119;28;20041;-46
2023/05/15 01:27:55;;;;;;;39.17;35.20;;;12.10;88.90;;;;;;5030084;28;20025;-46
2023/05/15 01:30:46;;;;;;;39.05;35.03;;;12.10;88.90;;;;;;5024462;28;20112;-46
2023/05/15 01:33:27;;;;;;;41.75;37.60;;;12.00;88.90;;;;;;5051905;28;20040;-46
2023/05/15 01:36:33;;;;;;;39.97;35.90;;;12.00;89.00;;;;;;5028830;28;20042;-46
2023/05/15 01:39:12;;;;;;;44.50;40.10;;;12.00;89.00;;;;;;5004622;28;20569;-46
2023/05/15 01:42:02;;;;;;;41.35;37.25;;;12.00;88.90;;;;;;5030358;28;20056;-47
2023/05/15 01:44:32;;;;;;;43.33;38.92;;;11.90;89.20;;;;;;5051511;28;20026;-46
2023/05/15 01:47:20;;;;;;;45.92;41.00;;;11.80;89.50;;;;;;5037333;28;20029;-45
2023/05/15 01:49:50;;;;;;;46.33;41.42;;;11.80;89.90;;;;;;5038935;28;20056;-46
2023/05/15 01:52:24;;;;;;;47.45;41.88;;;11.70;90.10;;;;;;5043485;28;20031;-46
2023/05/15 01:54:50;;;;;;;48.45;43.45;;;11.70;90.50;;;;;;5018238;28;20673;-45
2023/05/15 01:57:19;;;;;;;47.28;41.20;;;11.60;90.80;;;;;;5018086;28;20041;-45
2023/05/15 01:59:48;;;;;;;48.38;42.88;;;11.60;91.10;;;;;;5046774;28;20429;-44
2023/05/15 02:02:17;;;;;;;47.20;42.25;;;11.70;91.10;;;;;;5032271;28;20128;-45
2023/05/15 02:04:44;;;;;;;46.30;41.72;;;11.60;91.20;;;;;;5025886;28;20371;-45
2023/05/15 02:07:15;;;;;;;47.50;42.47;;;11.70;91.50;;;;;;5037620;28;20040;-46
2023/05/15 02:09:43;;;;;;;49.35;43.80;;;11.70;91.40;;;;;;5019404;28;20036;-48
2023/05/15 02:12:11;;;;;;;48.15;42.42;;;11.60;91.20;;;;;;5017505;28;20609;-45
2023/05/15 02:14:39;;;;;;;43.70;39.20;;;11.60;91.50;;;;;;5033249;28;20178;-46
2023/05/15 02:17:06;;;;;;;45.75;40.78;;;11.60;91.60;;;;;;5024481;28;20485;-46
2023/05/15 02:19:33;;;;;;;48.20;42.45;;;11.60;91.60;;;;;;5047862;28;20123;-45
2023/05/15 02:22:00;;;;;;;47.70;40.15;;;11.50;91.30;;;;;;5034956;28;20037;-47
2023/05/15 02:24:27;;;;;;;48.03;42.50;;;11.50;91.60;;;;;;5046658;28;20025;-46
2023/05/15 02:27:14;;;;;;;48.75;43.05;;;11.50;91.70;;;;;;5036372;28;20558;-44
2023/05/15 02:30:07;;;;;;;49.40;43.85;;;11.50;91.80;;;;;;5034233;28;20036;-46
2023/05/15 02:33:10;;;;;;;47.53;41.38;;;11.40;91.90;;;;;;5049423;28;20026;-45
2023/05/15 02:35:55;;;;;;;50.30;41.58;;;11.40;91.90;;;;;;5049496;28;20088;-45
2023/05/15 02:38:44;;;;;;;50.65;42.78;;;11.40;91.90;;;;;;5035092;28;20459;-47
2023/05/15 02:41:15;;;;;;;49.65;40.38;;;11.40;91.80;;;;;;5032107;28;20041;-45
2023/05/15 02:43:42;;;;;;;52.17;41.63;;;11.40;92.10;;;;;;5029936;28;20040;-45
2023/05/15 02:46:10;;;;;;;49.08;40.13;;;11.40;92.10;;;;;;5044215;28;20057;-45
2023/05/15 02:48:40;;;;;;;52.03;38.10;;;11.40;92.00;;;;;;5025562;28;20033;-44
2023/05/15 02:51:07;;;;;;;51.80;36.72;;;11.30;92.10;;;;;;5023286;28;20048;-45
2023/05/15 02:53:41;;;;;;;47.90;37.38;;;11.20;92.30;;;;;;5050328;28;20021;-45
2023/05/15 02:56:08;;;;;;;46.30;30.98;;;11.20;92.50;;;;;;5045106;28;20037;-46
2023/05/15 02:58:37;;;;;;;47.80;32.20;;;11.10;92.40;;;;;;5030445;28;20114;-46
2023/05/15 03:01:06;;;;;;;46.13;30.38;;;11.10;92.60;;;;;;5028546;28;20033;-48
2023/05/15 03:03:32;;;;;;;47.42;31.33;;;11.10;92.60;;;;;;5046543;28;20040;-45
2023/05/15 03:06:04;;;;;;;45.05;31.42;;;11.00;92.70;;;;;;5008638;28;20363;-45
2023/05/15 03:08:32;;;;;;;47.85;32.53;;;11.00;92.80;;;;;;5041138;28;20029;-45
2023/05/15 03:11:03;;;;;;;45.13;30.77;;;10.90;93.00;;;;;;5033381;28;20048;-45
2023/05/15 03:13:30;;;;;;;43.35;28.65;;;10.90;93.20;;;;;;5035289;28;20059;-43
2023/05/15 03:16:06;;;;;;;42.97;28.27;;;10.90;93.30;;;;;;5042669;28;20187;-45
2023/05/15 03:18:35;;;;;;;41.70;29.58;;;10.90;93.20;;;;;;5043281;28;20068;-44
2023/05/15 03:21:04;;;;;;;40.20;28.38;;;10.90;93.30;;;;;;5048085;28;20060;-45
2023/05/15 03:23:32;;;;;;;48.42;28.50;;;11.00;93.30;;;;;;5046701;28;20029;-45
2023/05/15 03:25:57;;;;;;;36.50;26.70;;;10.90;93.00;;;;;;5042410;28;20036;-44
2023/05/15 03:28:25;;;;;;;38.25;27.70;;;10.80;93.00;;;;;;5033552;28;20029;-46
2023/05/15 03:30:52;;;;;;;38.53;28.23;;;10.70;93.20;;;;;;5049455;28;20056;-45
2023/05/15 03:33:20;;;;;;;41.70;29.55;;;10.70;93.30;;;;;;5031135;28;20031;-45
2023/05/15 03:35:50;;;;;;;43.10;27.95;;;10.70;93.20;;;;;;5041858;28;20076;-45
2023/05/15 03:38:18;;;;;;;45.50;29.67;;;10.70;93.40;;;;;;5048234;28;20037;-45
2023/05/15 03:40:44;;;;;;;48.95;30.30;;;10.70;93.40;;;;;;5028948;28;20089;-46
2023/05/15 03:43:11;;;;;;;49.17;31.48;;;10.70;93.50;;;;;;5048238;28;20455;-45
2023/05/15 03:45:38;;;;;;;51.88;29.75;;;10.70;93.70;;;;;;5013704;28;20028;-45
2023/05/15 03:48:05;;;;;;;48.88;31.30;;;10.80;93.70;;;;;;5034227;28;20102;-45
2023/05/15 03:50:32;;;;;;;51.40;31.17;;;10.80;93.70;;;;;;5030591;28;20029;-46
2023/05/15 03:52:58;;;;;;;48.53;32.90;;;10.70;93.60;;;;;;5048278;28;20386;-46
2023/05/15 03:55:24;;;;;;;50.13;30.17;;;10.70;93.70;;;;;;5052578;28;20017;-46
2023/05/15 03:57:52;;;;;;;45.28;30.23;;;10.70;93.70;;;;;;5052371;28;20458;-45
2023/05/15 04:00:19;;;;;;;43.05;28.40;;;10.70;93.70;;;;;;5028569;28;20045;-47
2023/05/15 04:02:47;;;;;;;47.35;30.55;;;10.70;93.80;;;;;;5031029;28;20033;-44
2023/05/15 04:05:16;;;;;;;50.80;29.92;;;10.70;93.80;;;;;;5049857;28;20025;-45
2023/05/15 04:07:49;;;;;;;48.42;30.23;;;10.80;93.90;;;;;;5026120;28;20050;-46
2023/05/15 04:10:20;;;;;;;39.47;26.88;;;10.80;93.80;;;;;;5037040;28;20033;-44
2023/05/15 04:12:48;;;;;;;41.97;28.65;;;10.80;93.70;;;;;;5040205;28;20065;-45
2023/05/15 04:15:20;;;;;;;42.63;27.13;;;10.80;93.80;;;;;;5048936;28;20017;-47
2023/05/15 04:17:50;;;;;;;43.47;27.27;;;10.80;93.70;;;;;;5045457;28;20057;-45
2023/05/15 04:20:29;;;;;;;45.80;28.63;;;10.80;93.50;;;;;;5014659;28;20041;-45
2023/05/15 04:22:58;;;;;;;44.17;27.20;;;10.70;93.60;;;;;;5050630;28;20500;-47
2023/05/15 04:25:24;;;;;;;43.97;27.95;;;10.80;93.70;;;;;;5044776;28;20033;-49
2023/05/15 04:27:54;;;;;;;48.92;28.42;;;10.80;93.70;;;;;;5043696;28;20039;-46
2023/05/15 04:30:21;;;;;;;43.53;27.50;;;10.80;93.70;;;;;;5045786;28;20029;-45
2023/05/15 04:32:49;;;;;;;49.13;30.48;;;10.90;93.80;;;;;;5034927;28;20033;-47
2023/05/15 04:35:16;;;;;;;58.38;32.33;;;10.90;93.90;;;;;;5050912;28;20029;-45
2023/05/15 04:37:45;;;;;;;49.05;30.90;;;11.00;93.80;;;;;;5034948;28;20116;-45
2023/05/15 04:40:15;;;;;;;46.87;28.00;;;10.90;93.50;;;;;;5050945;28;20033;-45
2023/05/15 04:42:41;;;;;;;;;;;10.90;93.60;;;;;;5055312;28;20457;-45
2023/05/15 04:45:08;;;;;;;45.15;28.80;;;10.90;93.40;;;;;;5054642;28;19954;-47
2023/05/15 04:47:36;;;;;;;45.80;28.20;;;10.90;93.50;;;;;;5032148;28;20037;-45
2023/05/15 04:50:03;;;;;;;46.28;28.52;;;10.90;93.50;;;;;;5056135;28;20390;-45
2023/05/15 04:52:31;;;;;;;39.03;27.80;;;10.90;93.60;;;;;;5037819;28;20103;-45
2023/05/15 04:54:57;;;;;;;43.13;27.42;;;10.90;93.60;;;;;;5049145;28;20095;-47
2023/05/15 04:57:25;;;;;;;49.10;27.80;;;10.90;93.50;;;;;;5050656;28;20025;-45
2023/05/15 04:59:52;;;;;;;41.65;27.58;;;10.90;93.50;;;;;;5017118;28;20036;-47
2023/05/15 05:02:22;;;;;;;45.55;30.63;;;10.90;93.50;;;;;;5049087;28;20047;-46
2023/05/15 05:04:50;;;;;;;48.60;30.00;;;10.90;93.60;;;;;;5015553;28;20378;-46
2023/05/15 05:07:18;;;;;;;43.38;30.15;;;10.90;93.50;;;;;;5054446;28;20032;-48
2023/05/15 05:09:47;;;;;;;47.10;30.90;;;11.00;93.40;;;;;;5035039;28;20025;-45
2023/05/15 05:12:14;;;;;;;43.17;29.30;;;11.00;93.40;;;;;;5052587;28;20960;-45
2023/05/15 05:14:43;;;;;;;42.90;29.45;;;11.10;93.50;;;;;;5048048;28;20029;-46
2023/05/15 05:17:12;;;;;;;46.53;29.15;;;11.20;93.50;;;;;;5030762;28;20044;-46
2023/05/15 05:19:39;;;;;;;39.60;28.65;;;11.30;93.40;;;;;;5031527;28;20061;-46
2023/05/15 05:22:09;;;;;;;45.95;29.33;;;11.40;93.50;;;;;;5036687;28;20059;-47
2023/05/15 05:24:36;;;;;;;44.75;30.23;;;11.40;93.30;;;;;;5043938;28;20362;-47
2023/05/15 05:27:05;;;;;;;41.25;29.35;;;11.50;93.40;;;;;;5029528;28;20021;-47
2023/05/15 05:29:33;;;;;;;49.07;33.73;;;11.60;93.30;;;;;;5032478;28;20029;-46
2023/05/15 05:32:01;;;;;;;47.50;33.53;;;11.60;93.20;;;;;;5054228;28;20291;-46
2023/05/15 05:34:27;;;;;;;42.20;30.95;;;11.70;93.10;;;;;;5035629;28;20037;-46
2023/05/15 05:36:56;;;;;;;46.90;31.90;;;11.70;93.10;;;;;;5034740;28;20037;-45
2023/05/15 05:39:23;;;;;;;54.03;34.53;;;11.70;93.00;;;;;;5048157;28;20051;-47
2023/05/15 05:41:51;;;;;;;51.53;33.75;;;11.80;93.10;;;;;;5050965;28;20044;-46
2023/05/15 05:44:18;;;;;;;47.45;34.35;;;11.80;92.90;;;;;;5046784;28;20112;-46
2023/05/15 05:46:46;;;;;;;49.40;34.97;;;11.80;92.90;;;;;;5030081;28;20032;-47
2023/05/15 05:49:13;;;;;;;44.58;31.95;;;11.90;92.90;;;;;;5046575;28;20018;-47
2023/05/15 05:51:39;;;;;;;46.22;31.65;;;11.80;92.70;;;;;;5032419;28;20453;-46
2023/05/15 05:54:06;;;;;;;45.35;32.58;;;11.90;92.80;;;;;;5045596;28;20040;-46
2023/05/15 05:56:34;;;;;;;46.47;33.78;;;11.90;92.70;;;;;;5048183;28;20082;-47
2023/05/15 05:59:05;;;;;;;49.83;32.78;;;12.10;92.70;;;;;;5050440;28;20063;-47
2023/05/15 06:01:35;;;;;;;50.33;36.80;;;12.20;92.50;;;;;;5049737;28;20029;-46
2023/05/15 06:04:02;;;;;;;43.05;32.88;;;12.30;92.30;;;;;;5052163;28;20024;-47
2023/05/15 06:06:29;;;;;;;47.35;34.25;;;12.50;92.20;;;;;;5044440;28;20025;-47
2023/05/15 06:09:02;;;;;;;41.45;35.55;;;12.50;91.60;;;;;;5046012;28;20033;-47
2023/05/15 06:11:31;;;;;;;38.33;32.95;;;12.60;91.40;;;;;;5030153;28;20027;-47
2023/05/15 06:13:58;;;;;;;40.25;32.78;;;12.90;91.20;;;;;;5050739;28;20124;-47
2023/05/15 06:16:28;;;;;;;34.97;30.20;;;13.00;90.30;;;;;;5048186;28;20052;-46
2023/05/15 06:18:55;;;;;;;;;;;13.20;89.80;;;;;;5044012;28;20115;-48
2023/05/15 06:21:24;;;;;;;36.42;29.88;;;13.30;89.50;;;;;;5043276;28;19921;-46
2023/05/15 06:23:52;;;;;;;31.80;28.58;;;13.40;88.90;;;;;;5043913;28;20401;-46
2023/05/15 06:26:20;;;;;;;37.97;30.75;;;13.40;88.60;;;;;;5045338;28;20031;-46
2023/05/15 06:28:47;;;;;;;34.03;27.60;;;13.40;87.90;;;;;;5035176;28;20033;-46
2023/05/15 06:31:16;;;;;;;30.95;26.02;;;13.40;87.90;;;;;;5015139;28;20048;-46
2023/05/15 06:33:42;;;;;;;32.60;26.63;;;13.40;87.70;;;;;;5042860;28;20033;-46
2023/05/15 06:36:11;;;;;;;35.22;27.67;;;13.20;87.70;;;;;;5044315;28;20033;-46
2023/05/15 06:38:39;;;;;;;33.90;26.98;;;13.00;87.50;;;;;;5036412;28;20108;-47
2023/05/15 06:41:04;;;;;;;36.13;29.10;;;13.00;87.70;;;;;;5045418;28;20044;-47
2023/05/15 06:43:33;;;;;;;34.22;26.33;;;12.90;87.40;;;;;;5049275;28;20029;-46
2023/05/15 06:45:58;;;;;;;36.53;27.38;;;12.90;87.60;;;;;;5031886;28;20029;-48
2023/05/15 06:48:25;;;;;;;35.97;26.17;;;12.90;87.80;;;;;;5044696;28;20021;-46
2023/05/15 06:50:52;;;;;;;31.25;25.98;;;12.90;87.80;;;;;;5052795;28;20083;-46
2023/05/15 06:53:22;;;;;;;35.60;29.33;;;13.10;87.80;;;;;;5031565;28;20029;-47
2023/05/15 06:55:49;;;;;;;;;;;13.20;86.90;;;;;;5044244;28;20032;-47
2023/05/15 06:58:17;;;;;;;34.97;28.75;;;13.10;86.10;;;;;;5048770;28;20758;-46
2023/05/15 07:00:43;;;;;;;31.88;28.27;;;12.90;86.30;;;;;;5031832;28;20123;-49
2023/05/15 07:03:10;;;;;;;37.63;28.02;;;12.90;86.70;;;;;;5037235;28;20347;-50
2023/05/15 07:05:38;;;;;;;32.45;28.15;;;13.10;87.00;;;;;;5038997;28;20078;-46
2023/05/15 07:08:05;;;;;;;30.02;26.75;;;13.10;86.40;;;;;;5025032;28;20029;-47
2023/05/15 07:10:31;;;;;;;34.10;28.92;;;13.20;85.60;;;;;;5032982;28;20037;-48
2023/05/15 07:12:59;;;;;;;36.53;30.55;;;13.30;85.20;;;;;;5043960;28;20040;-46
2023/05/15 07:15:27;;;;;;;33.97;30.30;;;13.20;85.30;;;;;;5030290;28;20038;-46
2023/05/15 07:17:53;;;;;;;33.35;29.73;;;13.30;85.50;;;;;;5045033;28;20086;-50
2023/05/15 07:20:23;;;;;;;33.60;29.95;;;13.40;85.60;;;;;;5012424;28;20033;-48
2023/05/15 07:22:49;;;;;;;35.38;31.10;;;13.40;85.30;;;;;;5046000;28;20036;-48
2023/05/15 07:25:20;;;;;;;35.45;31.60;;;13.20;85.20;;;;;;5045251;28;20044;-47
2023/05/15 07:27:51;;;;;;;33.63;28.92;;;13.20;85.60;;;;;;5032897;28;20025;-47
2023/05/15 07:30:18;;;;;;;27.38;24.55;;;13.20;84.80;;;;;;5006995;28;20399;-49
2023/05/15 07:32:48;;;;;;;27.30;24.45;;;13.20;84.30;;;;;;5019518;28;20075;-49
2023/05/15 07:35:15;;;;;;;27.40;24.48;;;13.40;83.90;;;;;;5034338;28;20043;-48
2023/05/15 07:37:46;;;;;;;25.35;22.75;;;13.40;84.10;;;;;;5038213;28;20087;-48
2023/05/15 07:40:14;;;;;;;27.42;24.23;;;13.80;82.60;;;;;;5040228;28;20052;-50
2023/05/15 07:42:44;;;;;;;26.50;23.70;;;14.40;81.30;;;;;;5030302;28;20068;-48
2023/05/15 07:45:11;;;;;;;28.25;25.20;;;14.90;79.30;;;;;;5042250;28;20025;-47
2023/05/15 07:47:37;;;;;;;27.77;23.50;;;14.70;79.20;;;;;;5038956;28;20041;-50
2023/05/15 07:50:06;;;;;;;24.63;22.13;;;15.00;78.50;;;;;;5045718;28;20071;-48
2023/05/15 07:52:34;;;;;;;27.33;24.40;;;15.30;77.90;;;;;;5047290;28;20041;-49
2023/05/15 07:55:01;;;;;;;30.55;27.13;;;15.30;77.10;;;;;;5037362;28;20033;-47
2023/05/15 07:57:27;;;;;;;30.58;27.67;;;15.10;77.90;;;;;;5041423;28;20530;-47
2023/05/15 07:59:58;;;;;;;31.02;27.83;;;14.90;78.60;;;;;;5026693;28;20091;-47
2023/05/15 08:02:25;;;;;;;27.45;24.77;;;15.20;79.10;;;;;;5041493;28;20024;-47
2023/05/15 08:04:51;;;;;;;30.48;26.05;;;15.40;77.80;;;;;;5045740;28;20421;-49
2023/05/15 08:07:18;;;;;;;26.35;23.63;;;15.10;77.70;;;;;;5028737;28;20025;-54
2023/05/15 08:09:45;;;;;;;27.13;24.60;;;14.90;78.40;;;;;;5046687;28;20074;-48
2023/05/15 08:12:26;;;;;;;26.17;23.75;;;15.00;77.60;;;;;;5044719;28;20049;-50
2023/05/15 08:14:54;;;;;;;26.30;23.60;;;15.20;77.70;;;;;;5027830;28;20116;-51
2023/05/15 08:17:23;;;;;;;24.35;22.05;;;15.10;77.90;;;;;;5010977;28;20052;-48
2023/05/15 08:19:55;;;;;;;22.85;20.35;;;15.30;76.90;;;;;;5033883;28;20461;-47
2023/05/15 08:22:22;;;;;;;20.38;18.65;;;15.60;76.90;;;;;;5051776;28;20047;-49
2023/05/15 08:24:50;;;;;;;20.92;18.83;;;16.00;73.90;;;;;;5009139;28;20040;-49
2023/05/15 08:27:17;;;;;;;21.55;19.50;;;16.50;73.10;;;;;;5051523;28;20030;-47
2023/05/15 08:29:43;;;;;;;23.00;20.65;;;17.10;72.00;;;;;;5046882;28;20045;-46
2023/05/15 08:32:14;;;;;;;22.90;20.80;;;17.10;71.50;;;;;;5047928;28;20059;-50
2023/05/15 08:34:41;;;;;;;22.52;19.83;;;16.90;71.80;;;;;;5051745;28;20033;-49
2023/05/15 08:37:10;;;;;;;20.83;18.88;;;17.00;70.80;;;;;;5050639;28;20104;-50
2023/05/15 08:39:36;;;;;;;20.45;18.35;;;16.90;71.70;;;;;;5052801;28;20021;-49
2023/05/15 08:42:35;;;;;;;21.08;18.63;;;16.80;71.60;;;;;;5051524;28;20033;-48
2023/05/15 08:45:16;;;;;;;18.45;16.75;;;17.10;71.90;;;;;;5044478;28;20044;-52
2023/05/15 08:47:43;;;;;;;17.70;15.90;;;17.40;70.90;;;;;;5030495;28;20032;-49
2023/05/15 08:50:14;;;;;;;17.83;16.23;;;17.60;68.70;;;;;;5046441;28;20447;-48
2023/05/15 08:52:44;;;;;;;18.98;17.08;;;17.80;69.40;;;;;;5051320;28;20043;-51
2023/05/15 08:55:16;;;;;;;19.95;18.10;;;18.10;68.20;;;;;;5045193;28;20090;-49
2023/05/15 08:57:54;;;;;;;19.10;17.20;;;17.70;68.30;;;;;;5030766;28;20029;-48
2023/05/15 09:00:21;;;;;;;17.30;15.45;;;17.10;69.20;;;;;;5022015;28;20052;-49
2023/05/15 09:03:01;;;;;;;15.32;13.95;;;17.20;70.50;;;;;;5043430;28;20107;-50
2023/05/15 09:05:32;;;;;;;16.25;14.77;;;17.70;69.90;;;;;;5031205;28;20033;-47
2023/05/15 09:08:01;;;;;;;19.88;17.98;;;17.90;69.10;;;;;;5049412;28;20041;-47
2023/05/15 09:10:28;;;;;;;17.83;16.17;;;17.90;67.70;;;;;;5031634;28;20041;-48
2023/05/15 09:12:53;;;;;;;15.43;14.13;;;17.90;67.40;;;;;;5030294;28;20028;-53
2023/05/15 09:15:23;;;;;;;16.38;14.95;;;17.80;68.70;;;;;;5026128;28;20029;-49
2023/05/15 09:17:52;;;;;;;;;;;17.80;68.30;;;;;;5019438;28;20231;-47
2023/05/15 09:20:29;;;;;;;14.93;13.52;;;17.40;68.90;;;;;;5046767;28;19978;-47
2023/05/15 09:22:57;;;;;;;14.52;13.13;;;17.50;69.70;;;;;;5051511;28;20044;-48
2023/05/15 09:25:43;;;;;;;15.90;14.30;;;17.30;70.40;;;;;;5040962;28;20071;-51
2023/05/15 09:28:32;;;;;;;15.40;13.93;;;17.60;69.50;;;;;;5024188;28;20032;-50
2023/05/15 09:31:19;;;;;;;14.68;13.32;;;17.90;69.20;;;;;;5023665;28;20083;-49
2023/05/15 09:33:46;;;;;;;14.70;13.40;;;17.70;67.70;;;;;;5047107;28;20386;-50
2023/05/15 09:36:21;;;;;;;12.93;11.63;;;17.70;69.30;;;;;;5050798;28;20043;-48
2023/05/15 09:38:56;;;;;;;15.65;12.25;;;17.70;68.60;;;;;;5030523;28;20037;-47
2023/05/15 09:41:25;;;;;;;14.13;12.82;;;18.10;68.10;;;;;;5046272;28;20041;-48
2023/05/15 09:43:55;;;;;;;15.32;13.88;;;18.20;66.00;;;;;;5049472;28;20044;-47
2023/05/15 09:46:23;;;;;;;14.45;13.07;;;18.00;66.60;;;;;;5046006;28;20075;-47
2023/05/15 09:48:56;;;;;;;13.82;12.38;;;18.20;68.20;;;;;;5049070;28;20423;-49
2023/05/15 09:51:22;;;;;;;19.80;13.38;;;18.20;66.70;;;;;;5023022;28;20166;-48
2023/05/15 09:53:54;;;;;;;14.85;13.23;;;18.50;66.60;;;;;;5015166;28;20025;-49
2023/05/15 09:56:20;;;;;;;14.73;13.25;;;18.20;67.60;;;;;;5035871;28;20104;-48
2023/05/15 09:58:58;;;;;;;13.82;12.50;;;18.30;67.60;;;;;;5032125;28;20037;-50
2023/05/15 10:01:24;;;;;;;12.57;11.38;;;18.20;67.40;;;;;;5013946;28;20037;-47
2023/05/15 10:04:16;;;;;;;15.70;14.18;;;18.20;67.10;;;;;;5045705;28;20040;-48
2023/05/15 10:06:46;;;;;;;15.23;13.75;;;18.40;67.30;;;;;;5042834;28;20106;-48
2023/05/15 10:09:15;;;;;;;13.20;11.88;;;18.20;67.30;;;;;;5026448;28;20067;-49
2023/05/15 10:11:49;;;;;;;14.32;12.93;;;18.10;67.80;;;;;;5030299;28;20033;-48
2023/05/15 10:14:18;;;;;;;24.55;12.07;;;17.90;68.30;;;;;;5026677;28;20478;-47
2023/05/15 10:16:45;;;;;;;13.07;11.90;;;18.00;68.80;;;;;;5032875;28;20056;-48
2023/05/15 10:19:25;;;;;;;17.20;13.55;;;17.70;68.40;;;;;;5030325;28;20060;-48
2023/05/15 10:21:54;;;;;;;14.45;12.85;;;17.80;67.80;;;;;;5045066;28;20050;-47
2023/05/15 10:24:25;;;;;;;;;;;17.80;67.40;;;;;;5007666;28;20128;-47
2023/05/15 10:26:55;;;;;;;13.57;12.25;;;17.70;67.80;;;;;;5050312;28;19904;-47
2023/05/15 10:29:24;;;;;;;13.15;11.85;;;17.40;68.00;;;;;;5028096;28;20040;-47
2023/05/15 10:31:53;;;;;;;13.70;12.30;;;17.00;69.10;;;;;;5027993;28;20040;-50
2023/05/15 10:34:21;;;;;;;13.43;12.03;;;16.90;69.70;;;;;;5029944;28;20416;-47
2023/05/15 10:36:49;;;;;;;13.60;11.80;;;17.30;69.60;;;;;;5011318;28;20033;-49
2023/05/15 10:39:28;;;;;;;12.00;10.75;;;17.40;68.30;;;;;;5025467;28;20162;-48
2023/05/15 10:42:01;;;;;;;12.73;11.43;;;17.50;69.50;;;;;;5028367;28;20041;-47
2023/05/15 10:44:28;;;;;;;11.60;10.50;;;17.40;68.50;;;;;;5041600;28;20082;-47
2023/05/15 10:46:56;;;;;;;12.15;10.63;;;17.50;70.00;;;;;;5050553;28;20033;-48
2023/05/15 10:49:24;;;;;;;12.40;11.20;;;17.40;69.80;;;;;;5032259;28;20036;-48
2023/05/15 10:51:55;;;;;;;11.68;10.48;;;17.40;68.80;;;;;;5030624;28;20044;-47
2023/05/15 10:54:24;;;;;;;10.30;9.40;;;17.50;69.20;;;;;;5048664;28;20403;-48
2023/05/15 10:56:55;;;;;;;20.57;10.40;;;17.40;70.10;;;;;;5050575;28;20454;-48
2023/05/15 10:59:31;;;;;;;11.65;10.55;;;17.80;69.10;;;;;;5010729;28;20267;-47
2023/05/15 11:02:28;;;;;;;12.30;11.13;;;17.40;69.10;;;;;;5044318;28;20120;-47
2023/05/15 11:05:06;;;;;;;12.80;11.45;;;17.10;69.60;;;;;;5049562;28;20447;-48
2023/05/15 11:07:33;;;;;;;10.95;9.57;;;17.10;68.90;;;;;;5044688;28;20456;-48
2023/05/15 11:10:26;;;;;;;13.20;10.40;;;17.00;69.10;;;;;;5043651;28;20559;-48
2023/05/15 11:13:06;;;;;;;13.35;9.50;;;17.00;69.40;;;;;;5043826;28;20052;-50
2023/05/15 11:16:00;;;;;;;9.93;8.98;;;17.30;68.80;;;;;;5047213;28;20063;-47
2023/05/15 11:18:27;;;;;;;11.75;9.68;;;17.40;69.10;;;;;;5048040;28;20094;-49
2023/05/15 11:20:59;;;;;;;9.95;8.95;;;17.40;69.00;;;;;;5030253;28;20095;-47
2023/05/15 11:23:25;;;;;;;11.45;10.35;;;17.10;70.50;;;;;;5029554;28;20040;-48
2023/05/15 11:26:00;;;;;;;11.15;10.05;;;16.90;69.30;;;;;;5042584;28;20037;-54
2023/05/15 11:28:32;;;;;;;13.00;11.65;;;16.60;70.60;;;;;;5047679;28;20037;-47
2023/05/15 11:31:05;;;;;;;12.02;10.80;;;16.50;70.90;;;;;;5027438;28;20048;-50
2023/05/15 11:33:32;;;;;;;13.32;11.77;;;16.60;72.60;;;;;;5025657;28;20098;-47
2023/05/15 11:36:03;;;;;;;11.65;10.18;;;16.90;71.10;;;;;;5045838;28;20036;-47
2023/05/15 11:38:38;;;;;;;11.02;9.85;;;16.80;70.00;;;;;;5024681;28;20118;-50
2023/05/15 11:41:23;;;;;;;10.65;9.57;;;16.60;70.90;;;;;;5038806;28;20033;-49
2023/05/15 11:43:51;;;;;;;9.82;9.02;;;16.90;71.10;;;;;;5040997;28;20186;-47
2023/05/15 11:46:21;;;;;;;8.98;8.07;;;16.90;70.00;;;;;;5040965;28;20024;-48
2023/05/15 11:48:49;;;;;;;7.93;6.85;;;16.90;71.30;;;;;;5026830;28;20063;-47
2023/05/15 11:51:18;;;;;;;9.07;6.90;;;16.70;70.40;;;;;;5041759;28;20025;-50
2023/05/15 11:53:44;;;;;;;9.57;7.70;;;16.60;70.80;;;;;;5019760;28;20028;-47
2023/05/15 11:56:28;;;;;;;8.40;7.28;;;16.50;71.90;;;;;;5020159;28;20043;-49
2023/05/15 11:58:57;;;;;;;7.15;6.28;;;16.70;71.20;;;;;;5039964;28;20048;-47
2023/05/15 12:01:25;;;;;;;8.15;5.78;;;16.90;72.90;;;;;;5018952;28;20031;-50
2023/05/15 12:03:53;;;;;;;7.88;5.00;;;17.10;70.50;;;;;;5037767;28;20025;-51
2023/05/15 12:06:21;;;;;;;8.38;5.72;;;16.80;70.50;;;;;;5043302;28;20489;-49
2023/05/15 12:08:56;;;;;;;7.30;6.17;;;16.60;71.90;;;;;;5040232;28;20079;-49
2023/05/15 12:11:26;;;;;;;8.43;5.97;;;16.60;70.50;;;;;;5041194;28;20044;-50
2023/05/15 12:13:53;;;;;;;8.43;6.32;;;16.40;72.30;;;;;;5047618;28;20029;-48
2023/05/15 12:16:34;;;;;;;10.82;5.45;;;16.20;70.60;;;;;;5043625;28;20035;-51
2023/05/15 12:19:00;;;;;;;6.45;5.85;;;16.20;72.60;;;;;;5029078;28;20722;-49
2023/05/15 12:21:27;;;;;;;10.20;6.03;;;16.40;73.50;;;;;;5027268;28;20017;-50
2023/05/15 12:23:54;;;;;;;15.07;6.93;;;16.70;72.20;;;;;;5047020;28;20060;-47
2023/05/15 12:26:22;;;;;;;7.25;6.47;;;16.80;71.40;;;;;;5048468;28;20463;-49
2023/05/15 12:28:53;;;;;;;10.15;7.63;;;16.50;70.10;;;;;;5027963;28;20064;-46
2023/05/15 12:31:21;;;;;;;6.75;6.05;;;16.40;71.40;;;;;;5046390;28;20032;-48
2023/05/15 12:33:49;;;;;;;9.70;7.35;;;16.30;71.90;;;;;;5036555;28;20113;-49
2023/05/15 12:36:20;;;;;;;7.45;6.85;;;16.40;72.30;;;;;;5038358;28;20064;-47
2023/05/15 12:38:47;;;;;;;7.80;6.00;;;16.60;73.50;;;;;;5016853;28;20033;-47
2023/05/15 12:41:14;;;;;;;9.27;8.25;;;16.80;72.60;;;;;;5028613;28;20037;-47
2023/05/15 12:43:41;;;;;;;9.70;6.30;;;16.50;71.40;;;;;;5028445;28;20120;-48
2023/05/15 12:46:08;;;;;;;7.65;6.28;;;16.40;71.30;;;;;;5028677;28;20045;-47